Time;durP1;ratioP1;P1;durP2;ratioP2;P2;SDS_P1;SDS_P2;PMS_P1;PMS_P2;Temp;Humidity;BMP_temperature;BMP_pressure;BME280_temperature;BME280_humidity;BME280_pressure;Samples;Min_cycle;Max_cycle;Signal;HPM_P1;HPM_P2
2023/11/14 00:00:08;;;;;;;15.23;2.87;;;;;;;;;;705372;27;1723;-69
2023/11/14 00:00:29;;;;;;;15.40;3.47;;;;;;;;;;702415;28;1277;-70
2023/11/14 00:00:49;;;;;;;13.37;3.00;;;;;;;;;;701788;28;4425;-70
2023/11/14 00:01:09;;;;;;;13.68;2.88;;;;;;;;;;701884;28;1772;-68
2023/11/14 00:01:30;;;;;;;16.03;3.27;;;;;;;;;;702829;28;1237;-69
2023/11/14 00:01:50;;;;;;;15.23;3.40;;;;;;;;;;702192;28;1198;-68
2023/11/14 00:02:10;;;;;;;14.30;3.10;;;;;;;;;;702360;28;1770;-71
2023/11/14 00:02:31;;;;;;;12.03;3.00;;;;;;;;;;705724;27;1206;-68
2023/11/14 00:02:51;;;;;;;15.05;3.10;;;;;;;;;;706741;27;1169;-70
2023/11/14 00:03:11;;;;;;;13.90;3.40;;;;;;;;;;704800;27;1842;-68
2023/11/14 00:03:32;;;;;;;14.70;3.50;;;;;;;;;;706549;27;1323;-67
2023/11/14 00:03:52;;;;;;;14.18;2.80;;;;;;;;;;699432;28;4207;-69
2023/11/14 00:04:13;;;;;;;12.47;2.50;;;;;;;;;;699578;28;2340;-68
2023/11/14 00:04:34;;;;;;;13.53;2.60;;;;;;;;;;700726;28;1286;-68
2023/11/14 00:04:55;;;;;;;14.38;2.92;;;;;;;;;;699564;28;1258;-68
2023/11/14 00:05:16;;;;;;;13.97;2.80;;;;;;;;;;698853;28;2615;-72
2023/11/14 00:05:37;;;;;;;14.57;3.60;;;;;;;;;;700705;28;1238;-68
2023/11/14 00:05:58;;;;;;;13.65;3.50;;;;;;;;;;703095;27;2335;-68
2023/11/14 00:06:18;;;;;;;13.30;2.80;;;;;;;;;;703727;28;1235;-69
2023/11/14 00:06:39;;;;;;;13.63;2.97;;;;;;;;;;699611;28;4533;-66
2023/11/14 00:07:03;;;;;;;13.85;3.00;;;;;;;;;;698684;28;1088;-69
2023/11/14 00:07:24;;;;;;;14.98;3.10;;;;;;;;;;700351;28;1369;-68
2023/11/14 00:07:45;;;;;;;16.95;3.72;;;;;;;;;;697542;28;1258;-68
2023/11/14 00:08:06;;;;;;;13.30;2.72;;;;;;;;;;697877;28;2575;-69
2023/11/14 00:08:27;;;;;;;12.85;2.55;;;;;;;;;;701028;28;1308;-66
2023/11/14 00:08:49;;;;;;;12.93;2.58;;;;;;;;;;703716;28;1367;-69
2023/11/14 00:09:10;;;;;;;13.93;2.20;;;;;;;;;;701619;28;1935;-69
2023/11/14 00:09:34;;;;;;;14.20;2.47;;;;;;;;;;703864;28;1269;-66
2023/11/14 00:09:57;;;;;;;16.45;3.78;;;;;;;;;;704505;27;4705;-68
2023/11/14 00:10:18;;;;;;;16.85;3.80;;;;;;;;;;705414;27;1237;-65
2023/11/14 00:10:38;;;;;;;15.05;2.65;;;;;;;;;;703790;28;1588;-68
2023/11/14 00:10:59;;;;;;;11.87;2.50;;;;;;;;;;702309;28;1850;-68
2023/11/14 00:11:21;;;;;;;15.40;2.60;;;;;;;;;;700349;28;1289;-67
2023/11/14 00:11:41;;;;;;;14.13;2.47;;;;;;;;;;701290;28;1420;-65
2023/11/14 00:12:02;;;;;;;10.73;2.30;;;;;;;;;;699880;28;2112;-68
2023/11/14 00:12:22;;;;;;;11.10;2.30;;;;;;;;;;700737;28;793;-70
2023/11/14 00:12:42;;;;;;;13.73;2.70;;;;;;;;;;703402;28;4485;-70
2023/11/14 00:13:03;;;;;;;13.10;2.67;;;;;;;;;;702927;27;1724;-65
2023/11/14 00:13:23;;;;;;;13.30;2.47;;;;;;;;;;706458;27;1980;-64
2023/11/14 00:13:45;;;;;;;9.98;2.20;;;;;;;;;;704095;28;1444;-66
2023/11/14 00:14:06;;;;;;;11.57;2.40;;;;;;;;;;701441;28;1411;-68
2023/11/14 00:14:26;;;;;;;12.53;2.30;;;;;;;;;;700818;28;1384;-69
2023/11/14 00:14:47;;;;;;;17.00;2.78;;;;;;;;;;698017;28;1270;-68
2023/11/14 00:15:07;;;;;;;16.13;2.50;;;;;;;;;;697440;28;2196;-67
2023/11/14 00:15:28;;;;;;;14.25;2.40;;;;;;;;;;698633;28;1151;-67
2023/11/14 00:15:48;;;;;;;13.70;2.40;;;;;;;;;;700811;28;4483;-67
2023/11/14 00:16:09;;;;;;;11.13;2.50;;;;;;;;;;699011;28;1151;-67
2023/11/14 00:16:29;;;;;;;10.97;2.53;;;;;;;;;;703933;27;1257;-66
2023/11/14 00:16:49;;;;;;;13.85;2.50;;;;;;;;;;706354;27;1194;-65
2023/11/14 00:17:10;;;;;;;12.53;2.70;;;;;;;;;;704637;27;2411;-68
2023/11/14 00:17:30;;;;;;;14.60;2.97;;;;;;;;;;702657;28;1280;-69
2023/11/14 00:17:50;;;;;;;14.87;2.60;;;;;;;;;;703871;28;1561;-67
2023/11/14 00:18:11;;;;;;;13.80;2.20;;;;;;;;;;702036;28;1537;-68
2023/11/14 00:18:31;;;;;;;15.10;2.63;;;;;;;;;;703321;28;1470;-67
2023/11/14 00:18:51;;;;;;;15.77;3.17;;;;;;;;;;703547;28;4467;-68
2023/11/14 00:19:12;;;;;;;11.65;2.80;;;;;;;;;;702769;28;1470;-68
2023/11/14 00:19:33;;;;;;;13.53;2.73;;;;;;;;;;703650;28;1261;-71
2023/11/14 00:19:53;;;;;;;15.70;2.63;;;;;;;;;;705887;27;1205;-68
2023/11/14 00:20:13;;;;;;;14.27;2.83;;;;;;;;;;704181;27;3827;-68
2023/11/14 00:20:34;;;;;;;18.38;3.58;;;;;;;;;;700378;28;1333;-68
2023/11/14 00:20:57;;;;;;;20.40;3.07;;;;;;;;;;697411;28;1493;-67
2023/11/14 00:21:18;;;;;;;14.27;2.65;;;;;;;;;;697622;28;1253;-68
2023/11/14 00:21:39;;;;;;;13.95;2.75;;;;;;;;;;698064;28;4551;-68
2023/11/14 00:21:59;;;;;;;13.63;2.60;;;;;;;;;;696960;28;2889;-68
2023/11/14 00:22:19;;;;;;;11.57;2.50;;;;;;;;;;699476;28;1325;-68
2023/11/14 00:22:39;;;;;;;12.17;2.47;;;;;;;;;;703065;28;1244;-71
2023/11/14 00:23:00;;;;;;;10.67;2.23;;;;;;;;;;702564;28;1517;-67
2023/11/14 00:23:20;;;;;;;13.07;2.67;;;;;;;;;;697345;28;1246;-69
2023/11/14 00:23:41;;;;;;;15.30;3.40;;;;;;;;;;694901;28;1460;-67
2023/11/14 00:24:01;;;;;;;11.55;2.92;;;;;;;;;;693354;28;1890;-69
2023/11/14 00:24:22;;;;;;;12.27;2.40;;;;;;;;;;695222;28;1267;-69
2023/11/14 00:24:42;;;;;;;13.90;2.88;;;;;;;;;;694401;28;4529;-68
2023/11/14 00:25:02;;;;;;;13.93;3.00;;;;;;;;;;697482;28;1428;-70
2023/11/14 00:25:23;;;;;;;12.50;2.50;;;;;;;;;;701054;28;1333;-71
2023/11/14 00:25:44;;;;;;;10.52;2.55;;;;;;;;;;702628;28;1210;-68
2023/11/14 00:26:04;;;;;;;11.05;2.53;;;;;;;;;;701058;28;2334;-66
2023/11/14 00:26:24;;;;;;;11.60;2.40;;;;;;;;;;698489;28;1465;-68
2023/11/14 00:26:46;;;;;;;10.50;2.40;;;;;;;;;;693339;28;1425;-69
2023/11/14 00:27:06;;;;;;;13.10;2.40;;;;;;;;;;693473;28;1342;-70
2023/11/14 00:27:26;;;;;;;14.17;2.70;;;;;;;;;;695966;28;1439;-69
2023/11/14 00:27:47;;;;;;;15.52;2.65;;;;;;;;;;692758;28;4202;-67
2023/11/14 00:28:07;;;;;;;14.17;2.60;;;;;;;;;;694480;28;2234;-68
2023/11/14 00:28:28;;;;;;;17.25;2.97;;;;;;;;;;698146;28;1477;-69
2023/11/14 00:28:49;;;;;;;16.70;3.00;;;;;;;;;;698735;28;1226;-68
2023/11/14 00:29:10;;;;;;;16.63;2.90;;;;;;;;;;697657;28;1456;-69
2023/11/14 00:29:31;;;;;;;15.00;2.75;;;;;;;;;;698305;28;1349;-68
2023/11/14 00:29:51;;;;;;;10.70;1.90;;;;;;;;;;695391;28;1236;-69
2023/11/14 00:30:13;;;;;;;11.57;2.10;;;;;;;;;;697383;28;1587;-69
2023/11/14 00:30:34;;;;;;;11.48;2.50;;;;;;;;;;698943;28;1242;-70
2023/11/14 00:30:54;;;;;;;14.63;2.80;;;;;;;;;;698297;28;4449;-68
2023/11/14 00:31:15;;;;;;;15.63;3.67;;;;;;;;;;696018;28;2442;-72
2023/11/14 00:31:35;;;;;;;12.85;2.85;;;;;;;;;;700285;28;1356;-68
2023/11/14 00:31:55;;;;;;;13.77;2.90;;;;;;;;;;700774;28;1317;-70
2023/11/14 00:32:16;;;;;;;15.63;3.03;;;;;;;;;;701508;28;2461;-70
2023/11/14 00:32:36;;;;;;;13.52;2.70;;;;;;;;;;704038;28;1221;-70
2023/11/14 00:32:56;;;;;;;13.87;2.60;;;;;;;;;;703641;28;1292;-69
2023/11/14 00:33:16;;;;;;;13.13;2.47;;;;;;;;;;705666;27;1925;-69
2023/11/14 00:33:37;;;;;;;15.05;2.55;;;;;;;;;;705472;28;4251;-69
2023/11/14 00:33:58;;;;;;;11.87;2.27;;;;;;;;;;702664;28;1509;-69
2023/11/14 00:34:18;;;;;;;14.85;2.90;;;;;;;;;;699715;28;2366;-69
2023/11/14 00:34:39;;;;;;;15.23;2.78;;;;;;;;;;701283;28;1349;-69
2023/11/14 00:34:59;;;;;;;14.13;3.10;;;;;;;;;;699370;28;2540;-70
2023/11/14 00:35:20;;;;;;;14.60;3.20;;;;;;;;;;698144;28;1230;-69
2023/11/14 00:35:41;;;;;;;13.63;2.47;;;;;;;;;;698466;28;1254;-71
2023/11/14 00:36:02;;;;;;;14.43;2.88;;;;;;;;;;700907;28;1218;-70
2023/11/14 00:36:22;;;;;;;13.60;2.63;;;;;;;;;;702411;28;1226;-73
2023/11/14 00:36:42;;;;;;;14.35;2.55;;;;;;;;;;701375;28;4425;-69
2023/11/14 00:37:03;;;;;;;14.40;2.70;;;;;;;;;;699150;28;2420;-67
2023/11/14 00:37:23;;;;;;;15.90;2.72;;;;;;;;;;703521;28;1296;-67
2023/11/14 00:37:44;;;;;;;13.23;2.73;;;;;;;;;;699843;28;1238;-69
2023/11/14 00:38:04;;;;;;;12.13;2.93;;;;;;;;;;699163;28;1533;-68
2023/11/14 00:38:24;;;;;;;15.40;2.80;;;;;;;;;;698168;28;1380;-70
2023/11/14 00:38:44;;;;;;;12.60;2.60;;;;;;;;;;695524;28;1396;-62
2023/11/14 00:39:05;;;;;;;11.50;2.50;;;;;;;;;;697033;28;1413;-71
2023/11/14 00:39:27;;;;;;;12.27;2.38;;;;;;;;;;698419;28;1432;-66
2023/11/14 00:39:47;;;;;;;13.27;2.50;;;;;;;;;;699722;28;4243;-70
2023/11/14 00:40:09;;;;;;;14.40;2.87;;;;;;;;;;700107;28;2128;-71
2023/11/14 00:40:29;;;;;;;14.00;2.95;;;;;;;;;;701598;28;1186;-70
2023/11/14 00:40:50;;;;;;;13.30;2.60;;;;;;;;;;702975;28;1260;-70
2023/11/14 00:41:10;;;;;;;14.17;2.77;;;;;;;;;;702363;28;1479;-69
2023/11/14 00:41:30;;;;;;;13.97;2.73;;;;;;;;;;702702;27;1229;-69
2023/11/14 00:41:53;;;;;;;13.52;2.97;;;;;;;;;;705512;27;1201;-70
2023/11/14 00:42:14;;;;;;;12.98;2.70;;;;;;;;;;702599;28;1874;-70
2023/11/14 00:42:35;;;;;;;12.80;2.33;;;;;;;;;;699644;28;4381;-69
2023/11/14 00:42:55;;;;;;;11.90;2.58;;;;;;;;;;698049;28;1210;-69
2023/11/14 00:43:16;;;;;;;14.30;2.90;;;;;;;;;;696607;28;2469;-68
2023/11/14 00:43:36;;;;;;;14.27;3.00;;;;;;;;;;696005;28;1216;-71
2023/11/14 00:43:57;;;;;;;13.30;2.70;;;;;;;;;;697817;28;1286;-69
2023/11/14 00:44:17;;;;;;;11.03;2.50;;;;;;;;;;697685;28;1858;-68
2023/11/14 00:44:38;;;;;;;13.60;3.08;;;;;;;;;;701399;28;1254;-66
2023/11/14 00:44:58;;;;;;;13.83;3.10;;;;;;;;;;699933;28;1278;-66
2023/11/14 00:45:18;;;;;;;15.60;2.65;;;;;;;;;;699651;28;2716;-67
2023/11/14 00:45:39;;;;;;;17.27;2.80;;;;;;;;;;700797;28;4374;-67
2023/11/14 00:45:59;;;;;;;15.20;2.77;;;;;;;;;;697627;28;1445;-65
2023/11/14 00:46:19;;;;;;;15.73;2.90;;;;;;;;;;697894;28;1478;-68
2023/11/14 00:46:40;;;;;;;15.13;2.43;;;;;;;;;;699958;28;1258;-65
2023/11/14 00:47:00;;;;;;;10.40;2.22;;;;;;;;;;697180;28;1825;-65
2023/11/14 00:47:20;;;;;;;13.27;2.90;;;;;;;;;;700780;28;1396;-67
2023/11/14 00:47:40;;;;;;;14.63;2.97;;;;;;;;;;699782;28;1353;-69
2023/11/14 00:48:01;;;;;;;16.83;3.78;;;;;;;;;;704831;28;1869;-68
2023/11/14 00:48:21;;;;;;;15.73;3.07;;;;;;;;;;704120;28;1316;-69
2023/11/14 00:48:43;;;;;;;14.73;3.20;;;;;;;;;;702895;28;4301;-68
2023/11/14 00:49:03;;;;;;;14.32;3.47;;;;;;;;;;699683;28;1605;-69
2023/11/14 00:49:23;;;;;;;16.73;3.50;;;;;;;;;;702920;28;1230;-68
2023/11/14 00:49:43;;;;;;;14.57;3.00;;;;;;;;;;702750;28;1282;-70
2023/11/14 00:50:04;;;;;;;14.90;2.47;;;;;;;;;;700999;28;1768;-71
2023/11/14 00:50:25;;;;;;;13.40;2.20;;;;;;;;;;703638;28;1420;-67
2023/11/14 00:50:45;;;;;;;14.05;2.92;;;;;;;;;;707138;28;1498;-66
2023/11/14 00:51:06;;;;;;;16.40;3.73;;;;;;;;;;703817;28;2829;-66
2023/11/14 00:51:26;;;;;;;16.03;3.37;;;;;;;;;;704507;28;1265;-67
2023/11/14 00:51:46;;;;;;;16.98;2.90;;;;;;;;;;704504;28;4495;-67
2023/11/14 00:52:07;;;;;;;13.53;2.70;;;;;;;;;;702640;28;2422;-67
2023/11/14 00:52:27;;;;;;;14.27;2.63;;;;;;;;;;703312;28;1261;-66
2023/11/14 00:52:47;;;;;;;13.93;3.17;;;;;;;;;;704331;28;1333;-69
2023/11/14 00:53:07;;;;;;;14.43;2.77;;;;;;;;;;699580;28;1865;-68
2023/11/14 00:53:28;;;;;;;14.20;2.70;;;;;;;;;;700106;28;1901;-67
2023/11/14 00:53:51;;;;;;;15.13;2.50;;;;;;;;;;699195;28;1337;-67
2023/11/14 00:54:11;;;;;;;14.98;3.10;;;;;;;;;;697140;28;2402;-68
2023/11/14 00:54:32;;;;;;;15.63;3.20;;;;;;;;;;697981;28;1481;-68
2023/11/14 00:54:53;;;;;;;16.35;3.30;;;;;;;;;;700723;28;4268;-68
2023/11/14 00:55:13;;;;;;;14.65;2.78;;;;;;;;;;699628;28;1776;-67
2023/11/14 00:55:34;;;;;;;15.00;3.10;;;;;;;;;;697692;28;1328;-68
2023/11/14 00:55:55;;;;;;;15.30;3.13;;;;;;;;;;698091;28;1230;-69
2023/11/14 00:56:15;;;;;;;13.48;2.92;;;;;;;;;;698821;28;2543;-70
2023/11/14 00:56:36;;;;;;;13.98;3.10;;;;;;;;;;699633;28;1218;-68
2023/11/14 00:56:57;;;;;;;11.90;2.93;;;;;;;;;;701909;28;1266;-66
2023/11/14 00:57:18;;;;;;;14.40;3.50;;;;;;;;;;698934;28;2309;-72
2023/11/14 00:57:38;;;;;;;16.42;3.53;;;;;;;;;;697947;28;4479;-68
2023/11/14 00:57:59;;;;;;;17.07;4.60;;;;;;;;;;699991;28;1314;-68
2023/11/14 00:58:20;;;;;;;13.87;3.70;;;;;;;;;;698561;28;2399;-69
2023/11/14 00:58:41;;;;;;;16.20;3.05;;;;;;;;;;695732;28;1390;-66
2023/11/14 00:59:04;;;;;;;16.25;2.95;;;;;;;;;;697293;28;2659;-68
2023/11/14 00:59:24;;;;;;;12.05;2.60;;;;;;;;;;699393;28;1435;-68
2023/11/14 00:59:44;;;;;;;11.97;2.50;;;;;;;;;;699193;28;1234;-69
2023/11/14 01:00:06;;;;;;;15.02;2.53;;;;;;;;;;696096;28;2461;-66
2023/11/14 01:00:27;;;;;;;17.42;2.80;;;;;;;;;;698586;28;1289;-68
2023/11/14 01:00:47;;;;;;;17.90;2.93;;;;;;;;;;697766;28;5094;-70
2023/11/14 01:01:08;;;;;;;15.95;3.03;;;;;;;;;;697050;28;1817;-67
2023/11/14 01:01:28;;;;;;;17.80;2.87;;;;;;;;;;694427;28;1305;-67
2023/11/14 01:01:48;;;;;;;16.10;2.50;;;;;;;;;;698315;28;1175;-70
2023/11/14 01:02:09;;;;;;;14.27;3.07;;;;;;;;;;697346;28;1744;-71
2023/11/14 01:02:29;;;;;;;17.03;3.50;;;;;;;;;;701542;28;1341;-67
2023/11/14 01:02:53;;;;;;;16.00;3.10;;;;;;;;;;701580;28;1231;-67
2023/11/14 01:03:13;;;;;;;15.90;3.05;;;;;;;;;;694353;28;1683;-66
2023/11/14 01:03:34;;;;;;;14.50;3.00;;;;;;;;;;699696;28;1239;-70
2023/11/14 01:03:55;;;;;;;17.00;3.42;;;;;;;;;;698714;28;4203;-67
2023/11/14 01:04:18;;;;;;;18.85;2.92;;;;;;;;;;696351;28;2472;-68
2023/11/14 01:04:40;;;;;;;15.15;3.40;;;;;;;;;;698393;28;1286;-67
2023/11/14 01:05:00;;;;;;;15.70;3.17;;;;;;;;;;697049;28;1432;-67
2023/11/14 01:05:23;;;;;;;16.25;3.33;;;;;;;;;;699433;28;2573;-68
2023/11/14 01:05:43;;;;;;;15.77;3.00;;;;;;;;;;700443;28;1376;-69
2023/11/14 01:06:05;;;;;;;16.25;3.03;;;;;;;;;;697094;28;1756;-67
2023/11/14 01:06:26;;;;;;;14.02;2.60;;;;;;;;;;701325;28;1427;-68
2023/11/14 01:06:46;;;;;;;14.95;2.70;;;;;;;;;;698731;28;4282;-68
2023/11/14 01:07:09;;;;;;;14.90;2.93;;;;;;;;;;695722;28;1791;-68
2023/11/14 01:07:29;;;;;;;14.68;3.25;;;;;;;;;;697604;28;1357;-67
2023/11/14 01:07:49;;;;;;;15.50;3.13;;;;;;;;;;698700;28;1464;-69
2023/11/14 01:08:11;;;;;;;13.65;2.33;;;;;;;;;;699245;28;1210;-69
2023/11/14 01:08:32;;;;;;;13.50;2.47;;;;;;;;;;700919;28;860;-71
2023/11/14 01:08:55;;;;;;;12.52;2.85;;;;;;;;;;704467;28;1261;-67
2023/11/14 01:09:15;;;;;;;15.60;2.95;;;;;;;;;;701723;28;1970;-67
2023/11/14 01:09:35;;;;;;;16.47;2.90;;;;;;;;;;704395;28;4270;-67
2023/11/14 01:09:56;;;;;;;18.50;3.78;;;;;;;;;;704552;27;1257;-67
2023/11/14 01:10:16;;;;;;;16.67;3.63;;;;;;;;;;705145;27;1772;-67
2023/11/14 01:10:37;;;;;;;14.80;2.57;;;;;;;;;;704631;28;787;-67
2023/11/14 01:10:57;;;;;;;15.23;2.90;;;;;;;;;;701055;28;1258;-68
2023/11/14 01:11:18;;;;;;;16.65;3.10;;;;;;;;;;696907;28;2108;-69
2023/11/14 01:11:38;;;;;;;13.27;2.77;;;;;;;;;;696376;28;1449;-69
2023/11/14 01:11:58;;;;;;;15.60;2.95;;;;;;;;;;696494;28;1262;-67
2023/11/14 01:12:20;;;;;;;16.50;3.10;;;;;;;;;;694878;28;1147;-67
2023/11/14 01:12:40;;;;;;;19.42;3.28;;;;;;;;;;698248;28;4257;-67
2023/11/14 01:13:00;;;;;;;17.25;3.00;;;;;;;;;;700706;28;1313;-67
2023/11/14 01:13:21;;;;;;;15.70;2.80;;;;;;;;;;700765;28;2091;-70
2023/11/14 01:13:41;;;;;;;13.38;3.30;;;;;;;;;;702597;28;1408;-69
2023/11/14 01:14:01;;;;;;;11.33;2.67;;;;;;;;;;697949;28;1602;-70
2023/11/14 01:14:22;;;;;;;13.00;2.70;;;;;;;;;;699043;28;1405;-68
2023/11/14 01:14:42;;;;;;;13.63;3.15;;;;;;;;;;697102;28;1559;-67
2023/11/14 01:15:03;;;;;;;17.63;3.37;;;;;;;;;;695029;28;1342;-66
2023/11/14 01:15:24;;;;;;;15.75;3.30;;;;;;;;;;692887;28;1464;-69
2023/11/14 01:15:45;;;;;;;18.13;3.40;;;;;;;;;;696177;28;4265;-68
2023/11/14 01:16:05;;;;;;;13.93;3.03;;;;;;;;;;697368;28;1849;-65
2023/11/14 01:16:25;;;;;;;12.47;2.40;;;;;;;;;;698399;28;3589;-68
2023/11/14 01:16:45;;;;;;;13.35;2.70;;;;;;;;;;700674;28;1392;-68
2023/11/14 01:17:06;;;;;;;16.47;2.90;;;;;;;;;;702656;28;1981;-68
2023/11/14 01:17:26;;;;;;;15.47;2.50;;;;;;;;;;699795;28;1579;-66
2023/11/14 01:17:46;;;;;;;15.73;2.70;;;;;;;;;;698679;28;1285;-68
2023/11/14 01:18:07;;;;;;;14.73;2.73;;;;;;;;;;695656;28;2753;-69
2023/11/14 01:18:27;;;;;;;11.50;2.70;;;;;;;;;;695425;28;1286;-69
2023/11/14 01:18:48;;;;;;;13.80;3.20;;;;;;;;;;695284;28;4464;-68
2023/11/14 01:19:10;;;;;;;13.82;3.03;;;;;;;;;;693086;28;1874;-69
2023/11/14 01:19:30;;;;;;;11.20;3.00;;;;;;;;;;693509;28;1319;-70
2023/11/14 01:19:51;;;;;;;13.10;3.07;;;;;;;;;;695953;28;1293;-70
2023/11/14 01:20:12;;;;;;;13.43;2.70;;;;;;;;;;692528;28;1548;-69
2023/11/14 01:20:32;;;;;;;14.77;2.92;;;;;;;;;;693406;28;1402;-68
2023/11/14 01:20:52;;;;;;;15.80;3.70;;;;;;;;;;693110;28;1139;-68
2023/11/14 01:21:16;;;;;;;16.90;5.00;;;;;;;;;;695280;28;1705;-67
2023/11/14 01:21:36;;;;;;;15.73;3.17;;;;;;;;;;697848;28;4603;-70
2023/11/14 01:21:57;;;;;;;13.70;3.40;;;;;;;;;;702261;28;1254;-67
2023/11/14 01:22:17;;;;;;;16.40;4.13;;;;;;;;;;703561;27;2540;-67
2023/11/14 01:22:38;;;;;;;16.27;3.67;;;;;;;;;;706608;27;1298;-67
2023/11/14 01:22:58;;;;;;;15.90;3.30;;;;;;;;;;703908;28;1233;-68
2023/11/14 01:23:19;;;;;;;20.15;4.45;;;;;;;;;;700569;28;1164;-68
2023/11/14 01:23:39;;;;;;;22.33;4.50;;;;;;;;;;701438;28;1305;-68
2023/11/14 01:24:01;;;;;;;17.38;4.40;;;;;;;;;;701543;28;2022;-69
2023/11/14 01:24:21;;;;;;;19.60;4.80;;;;;;;;;;697787;28;1731;-68
2023/11/14 01:24:41;;;;;;;17.88;4.43;;;;;;;;;;696776;28;4273;-68
2023/11/14 01:25:02;;;;;;;11.93;3.87;;;;;;;;;;696506;28;1734;-69
2023/11/14 01:25:23;;;;;;;14.27;3.60;;;;;;;;;;696817;28;1408;-67
2023/11/14 01:25:43;;;;;;;17.17;3.78;;;;;;;;;;694404;28;1250;-69
2023/11/14 01:26:04;;;;;;;13.93;3.00;;;;;;;;;;696533;28;1912;-69
2023/11/14 01:26:24;;;;;;;15.20;3.40;;;;;;;;;;697798;28;1389;-69
2023/11/14 01:26:45;;;;;;;16.97;4.00;;;;;;;;;;699173;28;1448;-69
2023/11/14 01:27:05;;;;;;;17.05;3.33;;;;;;;;;;695842;28;1794;-71
2023/11/14 01:27:26;;;;;;;16.70;3.27;;;;;;;;;;701038;28;1518;-70
2023/11/14 01:27:46;;;;;;;14.88;3.85;;;;;;;;;;695269;28;4256;-68
2023/11/14 01:28:07;;;;;;;14.67;3.60;;;;;;;;;;694831;28;2393;-68
2023/11/14 01:28:27;;;;;;;14.50;3.17;;;;;;;;;;696142;28;1574;-69
2023/11/14 01:28:47;;;;;;;16.13;4.00;;;;;;;;;;694905;28;1350;-68
2023/11/14 01:29:07;;;;;;;17.50;3.87;;;;;;;;;;695949;28;1466;-68
2023/11/14 01:29:28;;;;;;;16.52;3.22;;;;;;;;;;696631;28;1461;-68
2023/11/14 01:29:50;;;;;;;18.57;3.03;;;;;;;;;;699035;28;1269;-68
2023/11/14 01:30:10;;;;;;;16.50;3.17;;;;;;;;;;693928;28;2226;-69
2023/11/14 01:30:30;;;;;;;17.23;3.43;;;;;;;;;;699254;28;1242;-69
2023/11/14 01:30:51;;;;;;;16.67;2.90;;;;;;;;;;701161;28;4515;-70
2023/11/14 01:31:21;;;;;;;17.43;3.10;;;;;;;;;;699628;28;2324;-69
2023/11/14 01:31:41;;;;;;;15.57;3.05;;;;;;;;;;701895;28;1317;-69
2023/11/14 01:32:01;;;;;;;16.90;3.13;;;;;;;;;;700791;28;1436;-69
2023/11/14 01:32:22;;;;;;;13.20;3.00;;;;;;;;;;700393;28;1200;-68
2023/11/14 01:32:42;;;;;;;13.73;2.90;;;;;;;;;;704299;28;1325;-68
2023/11/14 01:33:02;;;;;;;18.42;3.15;;;;;;;;;;698998;28;2765;-68
2023/11/14 01:33:23;;;;;;;19.00;2.77;;;;;;;;;;700562;28;1974;-68
2023/11/14 01:33:43;;;;;;;18.70;3.17;;;;;;;;;;701401;28;4396;-68
2023/11/14 01:34:03;;;;;;;16.08;3.08;;;;;;;;;;703324;28;2426;-70
2023/11/14 01:34:25;;;;;;;18.57;3.60;;;;;;;;;;703021;28;1442;-68
2023/11/14 01:34:45;;;;;;;16.83;3.15;;;;;;;;;;700526;28;1769;-69
2023/11/14 01:35:06;;;;;;;16.00;3.20;;;;;;;;;;698445;28;1795;-69
2023/11/14 01:35:27;;;;;;;15.37;3.20;;;;;;;;;;700835;28;1360;-70
2023/11/14 01:35:47;;;;;;;14.30;2.85;;;;;;;;;;701637;28;1273;-67
2023/11/14 01:36:07;;;;;;;18.23;2.93;;;;;;;;;;700086;28;1063;-68
2023/11/14 01:36:28;;;;;;;17.75;3.05;;;;;;;;;;698423;28;1250;-70
2023/11/14 01:36:48;;;;;;;17.80;3.00;;;;;;;;;;703496;28;4452;-70
2023/11/14 01:37:09;;;;;;;18.10;3.20;;;;;;;;;;699392;28;2911;-68
2023/11/14 01:37:29;;;;;;;16.60;3.05;;;;;;;;;;698163;28;1223;-69
2023/11/14 01:37:49;;;;;;;15.07;2.83;;;;;;;;;;698656;28;1298;-69
2023/11/14 01:38:09;;;;;;;18.73;3.72;;;;;;;;;;694605;28;2232;-71
2023/11/14 01:38:30;;;;;;;15.07;3.00;;;;;;;;;;698867;28;1282;-69
2023/11/14 01:38:50;;;;;;;15.53;2.70;;;;;;;;;;698529;28;5563;-70
2023/11/14 01:39:12;;;;;;;18.58;3.13;;;;;;;;;;700471;28;1773;-69
2023/11/14 01:39:32;;;;;;;15.03;3.30;;;;;;;;;;702240;28;998;-69
2023/11/14 01:39:52;;;;;;;14.02;3.25;;;;;;;;;;699510;28;4257;-70
2023/11/14 01:40:16;;;;;;;13.60;3.10;;;;;;;;;;701504;28;1954;-68
2023/11/14 01:40:36;;;;;;;15.65;3.00;;;;;;;;;;701249;28;1293;-69
2023/11/14 01:40:57;;;;;;;18.47;3.50;;;;;;;;;;698895;28;1194;-71
2023/11/14 01:41:17;;;;;;;15.73;3.57;;;;;;;;;;695425;28;2343;-69
2023/11/14 01:41:37;;;;;;;13.23;2.77;;;;;;;;;;696179;28;1231;-69
2023/11/14 01:41:58;;;;;;;16.53;3.10;;;;;;;;;;698675;28;1243;-69
2023/11/14 01:42:19;;;;;;;17.67;3.58;;;;;;;;;;697503;28;1811;-68
2023/11/14 01:42:39;;;;;;;16.53;3.10;;;;;;;;;;700283;28;4356;-68
2023/11/14 01:43:02;;;;;;;13.50;3.20;;;;;;;;;;698943;28;1297;-69
2023/11/14 01:43:22;;;;;;;13.23;3.20;;;;;;;;;;699893;28;1374;-69
2023/11/14 01:43:43;;;;;;;16.85;3.38;;;;;;;;;;701233;28;1313;-69
2023/11/14 01:44:04;;;;;;;15.50;3.10;;;;;;;;;;699179;28;1730;-71
2023/11/14 01:44:25;;;;;;;15.68;3.03;;;;;;;;;;699821;28;2014;-69
2023/11/14 01:44:45;;;;;;;15.63;3.13;;;;;;;;;;698437;28;1449;-66
2023/11/14 01:45:06;;;;;;;14.55;2.58;;;;;;;;;;700299;28;1760;-69
2023/11/14 01:45:26;;;;;;;15.17;2.80;;;;;;;;;;699085;28;1301;-68
2023/11/14 01:45:46;;;;;;;10.98;2.70;;;;;;;;;;695176;28;4260;-68
2023/11/14 01:46:07;;;;;;;14.70;2.90;;;;;;;;;;693485;28;1252;-68
2023/11/14 01:46:29;;;;;;;13.57;2.58;;;;;;;;;;699082;28;1317;-68
2023/11/14 01:46:49;;;;;;;14.68;2.50;;;;;;;;;;701834;28;1170;-68
2023/11/14 01:47:10;;;;;;;15.00;3.50;;;;;;;;;;697306;28;1737;-68
2023/11/14 01:47:30;;;;;;;14.95;3.85;;;;;;;;;;698070;28;1286;-69
2023/11/14 01:47:53;;;;;;;16.65;3.22;;;;;;;;;;699715;28;1222;-69
2023/11/14 01:48:14;;;;;;;17.70;3.30;;;;;;;;;;699626;28;1984;-69
2023/11/14 01:48:35;;;;;;;15.60;3.20;;;;;;;;;;700620;28;4426;-69
2023/11/14 01:48:55;;;;;;;14.80;3.05;;;;;;;;;;701539;28;1186;-70
2023/11/14 01:49:16;;;;;;;16.90;3.70;;;;;;;;;;699605;28;1550;-68
2023/11/14 01:49:36;;;;;;;16.77;3.28;;;;;;;;;;695589;28;1286;-69
2023/11/14 01:49:57;;;;;;;13.03;2.93;;;;;;;;;;694120;28;1373;-69
2023/11/14 01:50:19;;;;;;;15.55;3.28;;;;;;;;;;693853;28;1620;-69
2023/11/14 01:50:39;;;;;;;16.98;3.45;;;;;;;;;;694362;28;1119;-68
2023/11/14 01:50:59;;;;;;;13.77;3.30;;;;;;;;;;692338;28;1302;-71
2023/11/14 01:51:22;;;;;;;13.77;3.15;;;;;;;;;;689712;28;2640;-68
2023/11/14 01:51:43;;;;;;;14.73;2.90;;;;;;;;;;687936;28;4430;-70
2023/11/14 01:52:03;;;;;;;16.75;3.17;;;;;;;;;;693239;28;1354;-70
2023/11/14 01:52:23;;;;;;;17.73;3.23;;;;;;;;;;690905;28;2659;-68
2023/11/14 01:52:44;;;;;;;16.85;3.10;;;;;;;;;;694099;28;1311;-68
2023/11/14 01:53:07;;;;;;;16.17;3.70;;;;;;;;;;694652;28;2626;-67
2023/11/14 01:53:27;;;;;;;15.30;3.45;;;;;;;;;;695527;28;1975;-67
2023/11/14 01:53:48;;;;;;;12.27;3.00;;;;;;;;;;699193;28;1253;-69
2023/11/14 01:54:09;;;;;;;14.05;2.88;;;;;;;;;;697526;28;2197;-69
2023/11/14 01:54:30;;;;;;;15.85;2.88;;;;;;;;;;698582;28;1230;-68
2023/11/14 01:54:50;;;;;;;16.98;2.63;;;;;;;;;;698147;28;4427;-68
2023/11/14 01:55:11;;;;;;;16.43;3.13;;;;;;;;;;700045;28;2351;-69
2023/11/14 01:55:31;;;;;;;14.18;3.15;;;;;;;;;;698635;28;1338;-67
2023/11/14 01:55:52;;;;;;;14.17;2.77;;;;;;;;;;696044;28;1274;-66
2023/11/14 01:56:13;;;;;;;14.52;2.72;;;;;;;;;;693749;28;1916;-69
2023/11/14 01:56:33;;;;;;;14.48;2.60;;;;;;;;;;694930;28;1259;-66
2023/11/14 01:56:54;;;;;;;15.57;3.10;;;;;;;;;;698897;28;1265;-69
2023/11/14 01:57:15;;;;;;;15.00;4.20;;;;;;;;;;697610;28;1530;-67
2023/11/14 01:57:35;;;;;;;16.52;3.47;;;;;;;;;;699164;28;4513;-68
2023/11/14 01:57:56;;;;;;;17.25;3.13;;;;;;;;;;696153;28;1247;-67
2023/11/14 01:58:16;;;;;;;14.97;2.70;;;;;;;;;;695153;28;2233;-65
2023/11/14 01:58:37;;;;;;;11.35;2.20;;;;;;;;;;699074;28;1338;-69
2023/11/14 01:58:57;;;;;;;14.50;2.60;;;;;;;;;;697723;28;1665;-67
2023/11/14 01:59:18;;;;;;;14.93;2.67;;;;;;;;;;697471;28;2555;-67
2023/11/14 01:59:40;;;;;;;17.55;3.45;;;;;;;;;;699195;28;1234;-67
2023/11/14 02:00:00;;;;;;;16.05;3.55;;;;;;;;;;695220;28;1416;-66
2023/11/14 02:00:21;;;;;;;14.05;2.72;;;;;;;;;;692123;28;1165;-67
2023/11/14 02:00:41;;;;;;;14.30;2.57;;;;;;;;;;693053;28;4395;-65
2023/11/14 02:01:02;;;;;;;13.80;2.73;;;;;;;;;;696298;28;1341;-65
2023/11/14 02:01:24;;;;;;;16.15;2.90;;;;;;;;;;696491;28;1144;-70
2023/11/14 02:01:45;;;;;;;13.23;2.67;;;;;;;;;;699124;28;1333;-67
2023/11/14 02:02:06;;;;;;;14.20;3.00;;;;;;;;;;697739;28;1963;-68
2023/11/14 02:02:26;;;;;;;11.68;2.80;;;;;;;;;;700223;28;1439;-70
2023/11/14 02:02:47;;;;;;;14.00;2.87;;;;;;;;;;698844;28;1325;-67
2023/11/14 02:03:08;;;;;;;15.05;2.92;;;;;;;;;;698634;28;2602;-66
2023/11/14 02:03:29;;;;;;;16.52;3.20;;;;;;;;;;701090;28;1330;-66
2023/11/14 02:03:49;;;;;;;16.35;2.85;;;;;;;;;;701016;28;4239;-65
2023/11/14 02:04:13;;;;;;;15.37;2.63;;;;;;;;;;702981;28;1444;-67
2023/11/14 02:04:34;;;;;;;15.07;2.88;;;;;;;;;;698440;28;1325;-68
2023/11/14 02:04:55;;;;;;;14.40;2.85;;;;;;;;;;698237;28;1265;-67
2023/11/14 02:05:17;;;;;;;13.85;3.08;;;;;;;;;;694383;28;2070;-67
2023/11/14 02:05:38;;;;;;;15.75;3.08;;;;;;;;;;698075;28;1432;-68
2023/11/14 02:05:58;;;;;;;17.67;3.40;;;;;;;;;;697482;28;1372;-68
2023/11/14 02:06:18;;;;;;;14.50;3.23;;;;;;;;;;698442;28;1707;-65